createdAt,value
2022-07-28T00:01:14.754Z,2.60
2022-07-28T00:03:49.008Z,2.55
2022-07-28T00:06:17.919Z,3.03
2022-07-28T00:08:46.435Z,2.95
2022-07-28T00:26:38.029Z,2.60
2022-07-28T00:29:06.563Z,3.10
2022-07-28T00:31:35.173Z,2.95
2022-07-28T00:45:21.604Z,2.95
2022-07-28T00:47:49.947Z,2.85
2022-07-28T00:50:19.763Z,3.15
2022-07-28T00:52:48.619Z,3.15
2022-07-28T00:55:17.927Z,2.70
2022-07-28T00:57:46.655Z,2.65
2022-07-28T01:00:15.986Z,3.20
2022-07-28T01:02:46.775Z,2.90
2022-07-28T01:05:15.999Z,3.15
2022-07-28T01:07:51.419Z,2.90
2022-07-28T01:10:28.437Z,2.88
2022-07-28T01:13:04.267Z,3.13
2022-07-28T01:15:38.121Z,2.58
2022-07-28T01:18:11.939Z,2.80
2022-07-28T01:20:45.370Z,2.47
2022-07-28T01:23:44.458Z,2.75
2022-07-28T01:26:23.596Z,2.67
2022-07-28T01:29:03.799Z,3.03
2022-07-28T01:31:40.680Z,2.95
2022-07-28T01:34:13.524Z,2.97
2022-07-28T01:36:46.946Z,3.05
2022-07-28T01:39:16.371Z,2.65
2022-07-28T01:41:46.449Z,2.90
2022-07-28T01:44:19.914Z,2.72
2022-07-28T01:46:51.442Z,2.95
2022-07-28T01:49:22.681Z,2.65
2022-07-28T01:51:53.712Z,2.60
2022-07-28T01:54:25.070Z,2.90
2022-07-28T01:56:55.084Z,2.70
2022-07-28T01:59:24.992Z,3.08
2022-07-28T02:01:55.484Z,2.60
2022-07-28T02:04:25.697Z,2.92
2022-07-28T02:06:56.786Z,3.00
2022-07-28T02:09:27.120Z,3.05
2022-07-28T02:11:57.491Z,2.90
2022-07-28T02:14:28.753Z,2.80
2022-07-28T02:17:03.249Z,3.03
2022-07-28T02:19:33.293Z,2.95
2022-07-28T02:22:05.046Z,2.90
2022-07-28T02:24:35.139Z,2.85
2022-07-28T02:27:09.409Z,2.80
2022-07-28T02:29:57.777Z,3.00
2022-07-28T02:32:40.132Z,3.00
2022-07-28T02:35:15.385Z,2.78
2022-07-28T02:37:51.087Z,2.80
2022-07-28T02:40:22.881Z,2.88
2022-07-28T02:42:54.571Z,2.90
2022-07-28T02:45:26.848Z,3.00
2022-07-28T02:48:01.490Z,2.50
2022-07-28T02:50:30.694Z,2.75
2022-07-28T02:53:14.978Z,3.00
2022-07-28T02:55:47.421Z,2.90
2022-07-28T02:58:19.375Z,2.92
2022-07-28T03:00:48.988Z,2.78
2022-07-28T03:03:20.049Z,2.97
2022-07-28T03:05:49.116Z,2.65
2022-07-28T03:08:18.643Z,3.03
2022-07-28T03:10:47.158Z,2.80
2022-07-28T03:13:15.569Z,2.65
2022-07-28T03:15:43.930Z,2.50
2022-07-28T03:18:12.377Z,2.90
2022-07-28T03:20:42.141Z,2.78
2022-07-28T03:23:10.814Z,3.00
2022-07-28T03:25:44.486Z,2.60
2022-07-28T03:28:19.527Z,2.75
2022-07-28T03:30:53.427Z,2.90
2022-07-28T03:33:21.992Z,2.75
2022-07-28T03:35:53.600Z,3.00
2022-07-28T03:38:25.345Z,2.63
2022-07-28T03:40:55.357Z,2.65
2022-07-28T03:43:26.133Z,2.70
2022-07-28T03:45:54.741Z,2.88
2022-07-28T03:48:24.736Z,2.83
2022-07-28T03:50:54.559Z,2.45
2022-07-28T03:53:25.744Z,2.80
2022-07-28T03:55:54.206Z,2.90
2022-07-28T03:58:25.911Z,2.72
2022-07-28T04:00:57.024Z,2.75
2022-07-28T04:03:42.709Z,2.58
2022-07-28T04:06:14.071Z,3.17
2022-07-28T04:08:42.671Z,2.80
2022-07-28T04:11:11.079Z,3.42
2022-07-28T04:13:39.453Z,2.80
2022-07-28T04:16:08.418Z,3.17
2022-07-28T04:18:37.032Z,2.92
2022-07-28T04:21:05.971Z,3.08
2022-07-28T04:23:35.870Z,3.50
2022-07-28T04:26:04.199Z,2.83
2022-07-28T04:28:32.599Z,3.10
2022-07-28T04:31:01.302Z,2.90
2022-07-28T04:33:30.585Z,3.10
2022-07-28T04:36:00.941Z,3.55
2022-07-28T04:38:29.735Z,3.20
2022-07-28T04:40:59.533Z,4.88
2022-07-28T04:43:28.078Z,5.15
2022-07-28T04:45:56.546Z,3.65
2022-07-28T04:48:25.438Z,3.83
2022-07-28T04:50:53.892Z,3.28
2022-07-28T04:53:23.052Z,3.15
2022-07-28T04:55:54.613Z,3.38
2022-07-28T04:58:24.793Z,3.45
2022-07-28T05:00:53.864Z,3.30
2022-07-28T05:03:22.799Z,3.50
2022-07-28T05:05:54.599Z,3.03
2022-07-28T05:08:25.656Z,3.70
2022-07-28T05:10:56.307Z,3.10
2022-07-28T05:13:31.927Z,3.60
2022-07-28T05:16:02.604Z,2.92
2022-07-28T05:18:31.180Z,3.38
2022-07-28T05:20:59.675Z,3.15
2022-07-28T05:23:28.398Z,3.40
2022-07-28T05:25:57.171Z,3.25
2022-07-28T05:28:27.017Z,2.95
2022-07-28T05:30:55.499Z,3.40
2022-07-28T05:33:24.826Z,3.60
2022-07-28T05:36:00.294Z,3.20
2022-07-28T05:38:29.232Z,2.95
2022-07-28T05:40:57.846Z,3.25
2022-07-28T05:43:29.144Z,3.20
2022-07-28T05:45:57.879Z,3.10
2022-07-28T05:48:26.462Z,3.47
2022-07-28T05:50:55.271Z,3.67
2022-07-28T05:53:23.884Z,3.15
2022-07-28T05:55:56.363Z,3.22
2022-07-28T05:58:31.219Z,3.13
2022-07-28T06:01:03.798Z,3.22
2022-07-28T06:03:39.740Z,3.40
2022-07-28T06:06:16.229Z,3.38
2022-07-28T06:08:46.773Z,3.13
2022-07-28T06:11:22.114Z,3.25
2022-07-28T06:13:53.071Z,3.20
2022-07-28T06:16:23.176Z,3.00
2022-07-28T06:18:52.871Z,2.97
2022-07-28T06:21:23.534Z,3.10
2022-07-28T06:23:52.016Z,3.47
2022-07-28T06:26:23.564Z,3.28
2022-07-28T06:28:53.898Z,3.40
2022-07-28T06:31:22.510Z,3.33
2022-07-28T06:33:50.992Z,3.10
2022-07-28T06:36:19.397Z,3.45
2022-07-28T06:38:47.838Z,3.40
2022-07-28T06:41:16.559Z,3.13
2022-07-28T06:43:45.564Z,3.15
2022-07-28T06:46:19.374Z,2.92
2022-07-28T06:48:47.915Z,3.25
2022-07-28T06:51:19.439Z,3.20
2022-07-28T06:53:49.001Z,3.35
2022-07-28T06:56:19.765Z,3.22
2022-07-28T06:58:50.193Z,3.10
2022-07-28T07:01:20.196Z,3.33
2022-07-28T07:03:50.144Z,3.55
2022-07-28T07:06:19.207Z,3.50
2022-07-28T07:08:48.803Z,3.70
2022-07-28T07:11:18.215Z,3.30
2022-07-28T07:13:47.338Z,3.20
2022-07-28T07:16:16.423Z,3.17
2022-07-28T07:18:48.478Z,3.30
2022-07-28T07:21:17.971Z,3.10
2022-07-28T07:23:46.496Z,3.30
2022-07-28T07:26:15.794Z,3.53
2022-07-28T07:28:45.382Z,3.97
2022-07-28T07:31:15.128Z,3.45
2022-07-28T07:33:43.801Z,3.83
2022-07-28T07:36:14.448Z,3.67
2022-07-28T07:38:43.208Z,3.60
2022-07-28T07:41:12.351Z,3.33
2022-07-28T07:43:44.573Z,3.47
2022-07-28T07:46:16.846Z,3.72
2022-07-28T07:48:46.633Z,3.65
2022-07-28T07:51:17.487Z,3.78
2022-07-28T07:53:46.226Z,3.90
2022-07-28T07:56:16.108Z,3.83
2022-07-28T07:58:44.533Z,3.83
2022-07-28T08:01:13.848Z,3.50
2022-07-28T08:03:44.046Z,3.42
2022-07-28T08:06:26.531Z,3.63
2022-07-28T08:08:55.767Z,3.50
2022-07-28T08:11:24.896Z,3.80
2022-07-28T08:13:54.121Z,3.63
2022-07-28T08:16:22.952Z,3.53
2022-07-28T08:18:51.680Z,3.28
2022-07-28T08:21:22.276Z,3.35
2022-07-28T08:23:51.045Z,3.38
2022-07-28T08:26:19.861Z,3.42
2022-07-28T08:28:48.641Z,3.58
2022-07-28T08:31:21.954Z,3.47
2022-07-28T08:33:53.763Z,3.47
2022-07-28T08:36:24.694Z,3.45
2022-07-28T08:38:53.424Z,3.55
2022-07-28T08:41:33.545Z,3.58
2022-07-28T08:44:05.062Z,3.63
2022-07-28T08:46:37.278Z,4.07
2022-07-28T08:49:10.115Z,3.90
2022-07-28T08:51:42.954Z,3.65
2022-07-28T08:54:14.993Z,3.33
2022-07-28T08:56:48.030Z,3.30
2022-07-28T08:59:16.971Z,3.40
2022-07-28T09:01:46.498Z,3.25
2022-07-28T09:04:17.184Z,3.45
2022-07-28T09:06:49.347Z,3.05
2022-07-28T09:09:18.364Z,3.30
2022-07-28T09:11:47.238Z,3.60
2022-07-28T09:14:16.387Z,3.00
2022-07-28T09:16:45.954Z,3.42
2022-07-28T09:19:14.320Z,3.45
2022-07-28T09:21:44.409Z,3.08
2022-07-28T09:24:34.602Z,3.15
2022-07-28T09:27:06.789Z,3.30
2022-07-28T09:29:37.363Z,3.65
2022-07-28T09:32:06.448Z,3.33
2022-07-28T09:34:42.579Z,3.20
2022-07-28T09:37:24.777Z,3.60
2022-07-28T09:39:59.255Z,3.50
2022-07-28T09:42:45.723Z,3.55
2022-07-28T09:45:23.291Z,3.28
2022-07-28T09:48:11.300Z,3.28
2022-07-28T09:50:41.499Z,3.45
2022-07-28T09:53:23.660Z,3.47
2022-07-28T09:56:01.604Z,3.08
2022-07-28T09:58:31.263Z,3.47
2022-07-28T10:01:11.518Z,3.40
2022-07-28T10:03:42.993Z,3.05
2022-07-28T10:06:16.569Z,3.15
2022-07-28T10:08:47.808Z,3.05
2022-07-28T10:11:19.682Z,3.45
2022-07-28T10:13:55.921Z,3.10
2022-07-28T10:16:26.281Z,3.33
2022-07-28T10:18:54.984Z,3.00
2022-07-28T10:21:25.824Z,3.15
2022-07-28T10:23:56.404Z,3.40
2022-07-28T10:26:31.378Z,2.90
2022-07-28T10:29:04.138Z,2.80
2022-07-28T10:31:40.337Z,2.88
2022-07-28T10:34:16.547Z,3.10
2022-07-28T10:36:45.619Z,2.85
2022-07-28T10:39:17.237Z,2.85
2022-07-28T10:41:47.447Z,2.92
2022-07-28T10:44:18.416Z,3.08
2022-07-28T10:46:48.234Z,2.85
2022-07-28T10:49:17.301Z,3.35
2022-07-28T10:52:04.937Z,2.90
2022-07-28T10:54:44.699Z,3.28
2022-07-28T10:57:18.973Z,3.00
2022-07-28T11:00:25.588Z,2.83
2022-07-28T11:02:59.009Z,2.78
2022-07-28T11:05:38.833Z,3.10
2022-07-28T11:08:09.593Z,3.13
2022-07-28T11:10:49.639Z,3.53
2022-07-28T11:13:29.261Z,4.50
2022-07-28T11:15:58.638Z,4.18
2022-07-28T11:18:29.828Z,3.85
2022-07-28T11:21:16.592Z,3.85
2022-07-28T11:23:48.473Z,3.80
2022-07-28T11:26:46.206Z,3.42
2022-07-28T11:29:23.318Z,2.92
2022-07-28T11:32:07.582Z,11.20
2022-07-28T11:35:14.528Z,3.33
2022-07-28T11:38:11.448Z,2.78
2022-07-28T11:40:42.473Z,2.92
2022-07-28T11:43:36.827Z,2.70
2022-07-28T11:46:37.718Z,3.00
2022-07-28T11:49:18.503Z,2.42
2022-07-28T11:52:23.660Z,2.70
2022-07-28T11:54:54.995Z,3.03
2022-07-28T11:57:26.055Z,2.80
2022-07-28T12:00:08.127Z,2.95
2022-07-28T12:02:38.422Z,2.70
2022-07-28T12:05:12.876Z,2.83
2022-07-28T12:07:43.996Z,2.78
2022-07-28T12:10:53.493Z,3.33
2022-07-28T12:13:16.607Z,3.22
2022-07-28T12:15:52.116Z,3.33
2022-07-28T12:18:25.018Z,2.92
2022-07-28T12:20:54.923Z,2.75
2022-07-28T12:23:38.825Z,2.60
2022-07-28T12:26:29.486Z,2.78
2022-07-28T12:29:01.062Z,2.50
2022-07-28T12:31:33.306Z,2.83
2022-07-28T12:34:06.383Z,2.78
2022-07-28T12:36:35.352Z,2.80
2022-07-28T12:44:49.129Z,2.30
2022-07-28T12:47:44.699Z,2.80
2022-07-28T12:50:16.488Z,2.70
2022-07-28T12:52:48.093Z,2.88
2022-07-28T12:55:25.217Z,2.67
2022-07-28T12:57:54.338Z,2.45
2022-07-28T13:00:25.804Z,2.13
2022-07-28T13:02:56.447Z,2.33
2022-07-28T13:05:55.384Z,2.30
2022-07-28T13:08:24.890Z,2.30
2022-07-28T13:10:57.584Z,2.40
2022-07-28T13:13:27.890Z,2.70
2022-07-28T13:16:16.045Z,2.63
2022-07-28T13:18:46.095Z,2.88
2022-07-28T13:21:16.791Z,3.00
2022-07-28T13:23:46.167Z,2.58
2022-07-28T13:26:14.534Z,2.50
2022-07-28T13:28:42.894Z,2.40
2022-07-28T13:31:11.796Z,2.25
2022-07-28T13:33:40.510Z,2.60
2022-07-28T13:36:09.416Z,2.45
2022-07-28T13:38:39.283Z,2.40
2022-07-28T13:41:08.095Z,2.20
2022-07-28T13:43:36.741Z,2.50
2022-07-28T13:46:06.145Z,2.15
2022-07-28T13:48:36.029Z,2.45
2022-07-28T13:51:05.102Z,2.47
2022-07-28T13:53:35.930Z,2.80
2022-07-28T13:56:10.577Z,2.53
2022-07-28T13:58:39.700Z,2.92
2022-07-28T14:01:10.279Z,2.50
2022-07-28T14:03:55.514Z,2.80
2022-07-28T14:06:25.646Z,2.78
2022-07-28T14:09:04.539Z,2.90
2022-07-28T14:11:36.481Z,2.67
2022-07-28T14:16:54.401Z,2.50
2022-07-28T14:19:38.527Z,2.55
2022-07-28T14:22:13.684Z,2.38
2022-07-28T14:24:43.435Z,2.50
2022-07-28T14:27:13.826Z,2.25
2022-07-28T14:29:43.753Z,2.40
2022-07-28T14:32:13.238Z,2.65
2022-07-28T14:34:42.661Z,2.17
2022-07-28T14:37:11.425Z,2.20
2022-07-28T14:39:40.216Z,2.00
2022-07-28T14:42:10.573Z,2.10
2022-07-28T14:44:40.722Z,2.25
2022-07-28T14:47:09.529Z,2.08
2022-07-28T14:49:38.292Z,1.80
2022-07-28T14:52:27.576Z,2.10
2022-07-28T14:54:56.556Z,2.40
2022-07-28T14:57:51.832Z,2.10
2022-07-28T15:00:18.318Z,2.13
2022-07-28T15:02:47.417Z,2.50
2022-07-28T15:05:15.922Z,2.05
2022-07-28T15:07:45.079Z,2.15
2022-07-28T15:10:13.809Z,2.40
2022-07-28T15:12:43.023Z,3.20
2022-07-28T15:15:12.875Z,2.70
2022-07-28T15:17:43.654Z,2.50
2022-07-28T15:20:13.669Z,2.40
2022-07-28T15:22:43.292Z,2.72
2022-07-28T15:25:12.511Z,2.17
2022-07-28T15:27:45.675Z,1.83
2022-07-28T15:30:15.571Z,1.90
2022-07-28T15:32:56.211Z,1.98
2022-07-28T15:35:26.357Z,1.90
2022-07-28T15:37:55.508Z,1.52
2022-07-28T15:40:25.551Z,1.60
2022-07-28T15:42:54.879Z,1.50
2022-07-28T15:45:23.918Z,1.40
2022-07-28T15:47:54.357Z,1.40
2022-07-28T15:50:23.891Z,1.77
2022-07-28T15:52:53.351Z,1.67
2022-07-28T15:55:22.161Z,1.92
2022-07-28T15:57:50.747Z,1.80
2022-07-28T16:00:20.509Z,1.73
2022-07-28T16:02:50.606Z,2.08
2022-07-28T16:05:21.738Z,1.90
2022-07-28T16:07:50.281Z,1.80
2022-07-28T16:10:18.906Z,2.00
2022-07-28T16:12:47.346Z,1.92
2022-07-28T16:15:16.289Z,1.50
2022-07-28T16:17:44.955Z,1.45
2022-07-28T16:20:13.700Z,1.30
2022-07-28T16:22:43.931Z,1.50
2022-07-28T16:25:16.740Z,1.40
2022-07-28T16:27:45.512Z,1.25
2022-07-28T16:30:14.487Z,1.40
2022-07-28T16:32:44.637Z,1.50
2022-07-28T16:35:15.960Z,1.50
2022-07-28T16:37:46.332Z,1.40
2022-07-28T16:40:14.963Z,1.50
2022-07-28T16:42:44.135Z,1.48
2022-07-28T16:45:13.687Z,1.70
2022-07-28T16:47:42.796Z,1.70
2022-07-28T16:50:12.309Z,1.80
2022-07-28T16:52:41.281Z,1.70
2022-07-28T16:55:16.003Z,1.95
2022-07-28T16:57:46.784Z,1.88
2022-07-28T17:00:16.661Z,2.00
2022-07-28T17:02:46.146Z,2.08
2022-07-28T17:05:15.316Z,1.90
2022-07-28T17:07:45.846Z,1.80
2022-07-28T17:10:20.267Z,2.13
2022-07-28T17:12:50.239Z,1.80
2022-07-28T17:15:22.063Z,1.83
2022-07-28T17:17:51.927Z,1.80
2022-07-28T17:20:21.288Z,1.80
2022-07-28T17:22:50.138Z,1.70
2022-07-28T17:25:52.724Z,1.88
2022-07-28T17:28:08.912Z,2.20
2022-07-28T17:30:38.107Z,1.95
2022-07-28T17:33:08.927Z,5.90
2022-07-28T17:35:40.188Z,4.25
2022-07-28T17:38:09.602Z,3.88
2022-07-28T17:40:42.829Z,3.72
2022-07-28T17:43:12.029Z,2.85
2022-07-28T17:45:40.427Z,2.15
2022-07-28T17:48:08.882Z,2.20
2022-07-28T17:50:37.307Z,3.20
2022-07-28T17:53:05.932Z,2.40
2022-07-28T17:55:57.465Z,2.35
2022-07-28T17:58:32.173Z,2.05
2022-07-28T18:01:10.695Z,1.92
2022-07-28T18:03:57.608Z,1.90
2022-07-28T18:06:29.971Z,2.38
2022-07-28T18:09:05.546Z,1.95
2022-07-28T18:11:37.623Z,2.20
2022-07-28T18:14:26.240Z,2.70
2022-07-28T18:16:55.081Z,2.67
2022-07-28T18:19:23.591Z,4.63
2022-07-28T18:21:52.155Z,4.40
2022-07-28T18:24:22.575Z,3.58
2022-07-28T18:26:51.858Z,3.13
2022-07-28T18:29:21.576Z,3.50
2022-07-28T18:31:52.346Z,3.33
2022-07-28T18:34:23.764Z,4.07
2022-07-28T18:36:54.025Z,3.40
2022-07-28T18:39:22.996Z,3.60
2022-07-28T18:41:51.409Z,3.83
2022-07-28T18:44:20.731Z,3.60
2022-07-28T18:46:49.799Z,3.38
2022-07-28T18:49:20.259Z,2.75
2022-07-28T18:51:49.488Z,2.67
2022-07-28T18:54:27.099Z,2.70
2022-07-28T18:56:56.299Z,2.25
2022-07-28T18:59:24.875Z,2.40
2022-07-28T19:01:53.328Z,2.35
2022-07-28T19:04:23.276Z,2.35
2022-07-28T19:06:51.852Z,2.70
2022-07-28T19:09:20.363Z,2.30
2022-07-28T19:11:49.029Z,2.28
2022-07-28T19:14:18.338Z,2.20
2022-07-28T19:16:47.179Z,2.50
2022-07-28T19:19:15.632Z,2.65
2022-07-28T19:21:45.554Z,2.30
2022-07-28T19:24:15.687Z,2.50
2022-07-28T19:26:46.375Z,2.20
2022-07-28T19:29:15.314Z,2.50
2022-07-28T19:31:43.783Z,2.70
2022-07-28T19:34:12.631Z,2.65
2022-07-28T19:36:42.276Z,2.45
2022-07-28T19:39:12.387Z,2.45
2022-07-28T19:41:40.929Z,2.00
2022-07-28T19:44:09.644Z,2.17
2022-07-28T19:46:39.370Z,2.30
2022-07-28T19:49:08.136Z,2.40
2022-07-28T19:51:37.036Z,2.70
2022-07-28T19:54:05.881Z,2.83
2022-07-28T19:56:35.762Z,3.33
2022-07-28T19:59:04.577Z,4.00
2022-07-28T20:01:32.989Z,3.38
2022-07-28T20:04:15.258Z,3.22
2022-07-28T20:06:44.094Z,3.58
2022-07-28T20:09:12.904Z,5.03
2022-07-28T20:11:43.055Z,4.10
2022-07-28T20:14:11.647Z,3.60
2022-07-28T20:16:40.182Z,2.90
2022-07-28T20:19:09.609Z,3.30
2022-07-28T20:21:39.424Z,3.28
2022-07-28T20:24:08.844Z,2.67
2022-07-28T20:26:37.473Z,3.03
2022-07-28T20:29:07.248Z,2.72
2022-07-28T20:31:36.941Z,2.70
2022-07-28T20:34:07.027Z,2.45
2022-07-28T20:36:35.777Z,2.83
2022-07-28T20:39:21.019Z,2.80
2022-07-28T20:41:52.598Z,2.65
2022-07-28T20:44:30.583Z,2.75
2022-07-28T20:47:00.851Z,2.88
2022-07-28T20:49:29.465Z,2.50
2022-07-28T20:54:54.266Z,2.60
2022-07-28T20:57:23.428Z,2.75
2022-07-28T20:59:53.335Z,2.92
2022-07-28T21:02:22.968Z,3.15
2022-07-28T21:04:52.448Z,2.83
2022-07-28T21:08:05.026Z,3.00
2022-07-28T21:10:11.835Z,2.33
2022-07-28T21:12:40.443Z,2.72
2022-07-28T21:15:11.614Z,2.50
2022-07-28T21:17:40.450Z,2.60
2022-07-28T21:20:10.126Z,2.50
2022-07-28T21:22:38.665Z,2.80
2022-07-28T21:25:08.701Z,2.55
2022-07-28T21:27:53.756Z,2.70
2022-07-28T21:30:28.208Z,2.85
2022-07-28T21:32:57.114Z,2.50
2022-07-28T21:35:26.533Z,2.85
2022-07-28T21:37:55.155Z,2.55
2022-07-28T21:40:24.413Z,2.45
2022-07-28T21:42:53.725Z,2.70
2022-07-28T21:45:24.095Z,2.90
2022-07-28T21:47:52.907Z,2.70
2022-07-28T21:50:21.649Z,2.60
2022-07-28T21:52:50.349Z,3.00
2022-07-28T21:55:19.133Z,2.80
2022-07-28T21:57:49.538Z,2.97
2022-07-28T22:00:23.539Z,3.22
2022-07-28T22:02:52.186Z,2.60
2022-07-28T22:05:20.769Z,2.97
2022-07-28T22:07:49.315Z,2.80
2022-07-28T22:10:18.777Z,2.78
2022-07-28T22:12:47.428Z,2.85
2022-07-28T22:15:15.811Z,3.08
2022-07-28T22:17:45.645Z,3.10
2022-07-28T22:20:14.252Z,2.88
2022-07-28T22:22:42.994Z,2.90
2022-07-28T22:25:11.838Z,2.83
2022-07-28T22:27:40.251Z,3.00
2022-07-28T22:30:10.236Z,2.90
2022-07-28T22:32:38.664Z,2.90
2022-07-28T22:35:10.797Z,3.10
2022-07-28T22:37:39.168Z,2.60
2022-07-28T22:40:08.577Z,2.63
2022-07-28T22:42:37.190Z,3.10
2022-07-28T22:45:06.129Z,2.80
2022-07-28T22:47:34.542Z,2.72
2022-07-28T22:50:02.963Z,2.80
2022-07-28T22:52:32.909Z,3.05
2022-07-28T22:55:01.308Z,3.05
2022-07-28T22:57:29.937Z,2.80
2022-07-28T22:59:58.360Z,2.83
2022-07-28T23:02:26.989Z,2.97
2022-07-28T23:10:35.991Z,3.13
2022-07-28T23:13:05.837Z,2.75
2022-07-28T23:15:41.320Z,2.95
2022-07-28T23:18:10.560Z,3.03
2022-07-28T23:20:39.679Z,3.03
2022-07-28T23:23:08.562Z,3.17
2022-07-28T23:25:39.585Z,3.08
2022-07-28T23:28:10.170Z,2.85
2022-07-28T23:30:38.674Z,3.00
2022-07-28T23:33:07.340Z,2.70
2022-07-28T23:35:36.952Z,2.88
2022-07-28T23:38:05.422Z,3.00
2022-07-28T23:40:33.794Z,3.10
2022-07-28T23:43:02.183Z,2.97
2022-07-28T23:45:32.134Z,3.40
2022-07-28T23:48:00.521Z,2.92
2022-07-28T23:50:29.188Z,2.85
2022-07-28T23:52:57.577Z,2.90
2022-07-28T23:55:28.850Z,3.05
2022-07-28T23:57:57.308Z,3.13
